Time;durP1;ratioP1;P1;durP2;ratioP2;P2;SDS_P1;SDS_P2;PMS_P1;PMS_P2;Temp;Humidity;BMP_temperature;BMP_pressure;BME280_temperature;BME280_humidity;BME280_pressure;Samples;Min_cycle;Max_cycle;Signal;HPM_P1;HPM_P2
2021/01/24 00:00:23;;;;;;;20.02;9.98;;;3.10;99.90;;;;;;5049305;28;20116;-77
2021/01/24 00:02:49;;;;;;;19.85;10.35;;;3.20;99.90;;;;;;5064510;28;20024;-77
2021/01/24 00:05:14;;;;;;;20.10;11.07;;;3.20;99.90;;;;;;5056366;28;20688;-77
2021/01/24 00:07:40;;;;;;;19.95;10.25;;;3.20;99.90;;;;;;5051409;28;20040;-77
2021/01/24 00:10:06;;;;;;;20.52;10.32;;;3.30;99.90;;;;;;5051055;28;20494;-77
2021/01/24 00:12:32;;;;;;;20.98;10.20;;;3.30;99.90;;;;;;5060552;28;20115;-77
2021/01/24 00:14:57;;;;;;;19.45;9.93;;;3.30;99.90;;;;;;5061797;28;20107;-77
2021/01/24 00:17:23;;;;;;;20.33;10.25;;;3.40;99.90;;;;;;5058507;28;20028;-77
2021/01/24 00:19:48;;;;;;;19.45;10.30;;;3.30;99.90;;;;;;5058487;28;20516;-77
2021/01/24 00:22:14;;;;;;;21.98;11.18;;;3.20;99.90;;;;;;5051954;28;20031;-77
2021/01/24 00:24:39;;;;;;;22.10;10.05;;;3.20;99.90;;;;;;5061801;28;20039;-77
2021/01/24 00:27:05;;;;;;;19.48;10.60;;;3.20;99.90;;;;;;5052092;28;20032;-78
2021/01/24 00:29:30;;;;;;;25.85;10.60;;;3.10;99.90;;;;;;5055386;28;20064;-77
2021/01/24 00:31:56;;;;;;;20.75;10.05;;;3.10;99.90;;;;;;5057250;28;20115;-78
2021/01/24 00:34:21;;;;;;;20.70;10.75;;;3.10;99.90;;;;;;5062285;28;20027;-77
2021/01/24 00:36:47;;;;;;;19.58;9.85;;;3.10;99.90;;;;;;5062600;28;20036;-77
2021/01/24 00:39:13;;;;;;;18.67;10.52;;;3.10;99.90;;;;;;5053535;28;20107;-77
2021/01/24 00:41:38;;;;;;;17.70;9.82;;;3.10;99.90;;;;;;5065916;28;20070;-77
2021/01/24 00:44:04;;;;;;;16.75;9.73;;;3.10;99.90;;;;;;5051527;28;20068;-77
2021/01/24 00:46:29;;;;;;;18.05;9.38;;;3.10;99.90;;;;;;5054836;28;20129;-78
2021/01/24 00:48:55;;;;;;;20.92;10.38;;;3.10;99.90;;;;;;5056024;28;20033;-77
2021/01/24 00:51:20;;;;;;;20.63;10.50;;;3.10;99.90;;;;;;5059617;28;20033;-77
2021/01/24 00:53:46;;;;;;;20.27;10.93;;;3.10;99.90;;;;;;5064405;28;20036;-77
2021/01/24 00:56:11;;;;;;;18.55;10.18;;;3.10;99.90;;;;;;5064451;28;20025;-78
2021/01/24 00:58:37;;;;;;;18.92;9.60;;;3.10;99.90;;;;;;5058952;28;20021;-77
2021/01/24 01:01:03;;;;;;;22.45;10.95;;;2.90;99.90;;;;;;5058509;28;20070;-77
2021/01/24 01:03:28;;;;;;;18.42;9.70;;;3.00;99.90;;;;;;5052305;28;20036;-77
2021/01/24 01:05:54;;;;;;;18.90;9.63;;;2.90;99.90;;;;;;5055549;28;20480;-78
2021/01/24 01:08:19;;;;;;;20.80;10.32;;;3.00;99.90;;;;;;5056121;28;20029;-77
2021/01/24 01:10:45;;;;;;;21.27;10.20;;;3.00;99.90;;;;;;5053926;28;20383;-77
2021/01/24 01:13:10;;;;;;;20.33;11.02;;;3.00;99.90;;;;;;5054673;28;20029;-77
2021/01/24 01:15:36;;;;;;;21.02;10.30;;;3.00;99.90;;;;;;5055617;28;20119;-77
2021/01/24 01:18:03;;;;;;;19.08;10.38;;;3.00;99.90;;;;;;5048451;28;20047;-77
2021/01/24 01:20:28;;;;;;;18.95;10.32;;;3.00;99.90;;;;;;5056481;28;20480;-77
2021/01/24 01:22:54;;;;;;;19.92;9.88;;;3.20;99.90;;;;;;5055303;28;20107;-78
2021/01/24 01:25:20;;;;;;;18.38;10.13;;;3.10;99.90;;;;;;5054351;28;20032;-77
2021/01/24 01:27:45;;;;;;;18.88;10.57;;;3.10;99.90;;;;;;5061629;28;20111;-78
2021/01/24 01:30:11;;;;;;;19.50;10.13;;;3.00;99.90;;;;;;5056480;28;20029;-78
2021/01/24 01:32:37;;;;;;;17.30;9.68;;;3.00;99.90;;;;;;5051415;28;20060;-77
2021/01/24 01:35:05;;;;;;;18.98;10.23;;;3.10;99.90;;;;;;5061831;28;20518;-77
2021/01/24 01:37:30;;;;;;;20.27;10.48;;;3.20;99.90;;;;;;5056795;28;20032;-77
2021/01/24 01:39:56;;;;;;;21.52;10.77;;;3.10;99.90;;;;;;5057310;28;20028;-77
2021/01/24 01:42:21;;;;;;;22.00;10.02;;;3.10;99.90;;;;;;5052492;28;20033;-77
2021/01/24 01:44:47;;;;;;;16.73;9.63;;;3.20;99.90;;;;;;5055471;28;20473;-77
2021/01/24 01:47:22;;;;;;;19.48;10.35;;;3.20;99.90;;;;;;5061759;28;20036;-77
2021/01/24 01:49:49;;;;;;;19.05;9.55;;;3.20;99.90;;;;;;5055550;28;20029;-77
2021/01/24 01:52:15;;;;;;;20.55;10.43;;;3.30;99.90;;;;;;5057214;28;20032;-78
2021/01/24 01:54:47;;;;;;;15.10;9.10;;;3.20;99.90;;;;;;5058627;28;20406;-78
2021/01/24 01:57:12;;;;;;;19.40;10.05;;;3.20;99.90;;;;;;5063905;28;20479;-77
2021/01/24 01:59:38;;;;;;;19.17;9.48;;;3.10;99.90;;;;;;5063467;28;20059;-77
2021/01/24 02:02:22;;;;;;;17.20;9.70;;;3.10;99.90;;;;;;5064031;28;20021;-77
2021/01/24 02:05:02;;;;;;;17.65;9.30;;;3.10;99.90;;;;;;5063844;28;20029;-77
2021/01/24 02:07:58;;;;;;;19.13;10.52;;;3.00;99.90;;;;;;5062138;28;20079;-77
2021/01/24 02:10:39;;;;;;;19.13;9.50;;;3.10;99.90;;;;;;5055447;28;20033;-77
2021/01/24 02:13:27;;;;;;;20.45;10.82;;;3.10;99.90;;;;;;5062384;28;20044;-77
2021/01/24 02:15:56;;;;;;;17.00;8.80;;;3.10;99.90;;;;;;5052340;28;20372;-78
2021/01/24 02:18:22;;;;;;;17.08;9.38;;;3.00;99.90;;;;;;5054974;28;20017;-77
2021/01/24 02:21:12;;;;;;;19.45;10.52;;;3.10;99.90;;;;;;5064329;28;20111;-77
2021/01/24 02:23:40;;;;;;;18.93;9.07;;;3.00;99.90;;;;;;5063893;28;20067;-77
2021/01/24 02:26:23;;;;;;;16.98;9.27;;;3.00;99.90;;;;;;5067634;28;20283;-77
2021/01/24 02:29:16;;;;;;;16.30;9.75;;;3.10;99.90;;;;;;5051135;28;20029;-77
2021/01/24 02:31:43;;;;;;;18.02;9.20;;;3.10;99.90;;;;;;5061976;28;20383;-78
2021/01/24 02:34:10;;;;;;;18.40;10.05;;;3.10;99.90;;;;;;5056458;28;20033;-77
2021/01/24 02:36:37;;;;;;;17.15;10.00;;;3.10;99.90;;;;;;5069008;28;20056;-77
2021/01/24 02:39:06;;;;;;;20.30;9.82;;;3.10;99.90;;;;;;5062061;28;20107;-77
2021/01/24 02:41:33;;;;;;;18.73;10.25;;;3.10;99.90;;;;;;5063545;28;20479;-77
2021/01/24 02:44:00;;;;;;;19.55;10.05;;;3.00;99.90;;;;;;5057467;28;20032;-77
2021/01/24 02:46:26;;;;;;;18.70;9.68;;;3.10;99.90;;;;;;5059200;28;20045;-77
2021/01/24 02:48:52;;;;;;;18.92;9.52;;;3.10;99.90;;;;;;5056040;28;20072;-77
2021/01/24 02:51:19;;;;;;;18.13;9.38;;;3.00;99.90;;;;;;5055124;28;20029;-78
2021/01/24 02:53:47;;;;;;;21.33;10.40;;;3.00;99.90;;;;;;5060119;28;20025;-78
2021/01/24 02:56:12;;;;;;;18.80;10.55;;;3.00;99.90;;;;;;5052555;28;20032;-77
2021/01/24 02:58:39;;;;;;;18.92;10.80;;;3.10;99.90;;;;;;5051853;28;20033;-77
2021/01/24 03:01:05;;;;;;;20.33;10.20;;;3.00;99.90;;;;;;5059549;28;20430;-77
2021/01/24 03:03:30;;;;;;;19.20;10.65;;;3.10;99.90;;;;;;5060130;28;20086;-77
2021/01/24 03:05:56;;;;;;;19.17;10.10;;;3.00;99.90;;;;;;5059179;28;20033;-77
2021/01/24 03:08:22;;;;;;;24.85;11.15;;;3.00;99.90;;;;;;5058239;28;20054;-77
2021/01/24 03:10:47;;;;;;;20.23;10.27;;;3.10;99.90;;;;;;5057068;28;20113;-77
2021/01/24 03:13:22;;;;;;;20.55;11.20;;;3.20;99.90;;;;;;5052881;28;20468;-77
2021/01/24 03:15:49;;;;;;;23.30;11.88;;;3.10;99.90;;;;;;5051424;28;20527;-77
2021/01/24 03:18:20;;;;;;;25.65;12.63;;;3.30;99.90;;;;;;5055971;28;20017;-77
2021/01/24 03:20:48;;;;;;;27.45;12.48;;;3.40;99.90;;;;;;5060765;28;20032;-77
2021/01/24 03:23:14;;;;;;;24.73;12.48;;;3.40;99.90;;;;;;5068946;28;20033;-77
2021/01/24 03:25:40;;;;;;;21.23;12.13;;;3.40;99.90;;;;;;5055379;28;20029;-77
2021/01/24 03:28:07;;;;;;;22.67;12.75;;;3.50;99.90;;;;;;5053603;28;20036;-77
2021/01/24 03:30:36;;;;;;;21.48;11.98;;;3.50;99.90;;;;;;5055132;28;20511;-77
2021/01/24 03:33:02;;;;;;;22.77;12.15;;;3.60;99.90;;;;;;5056828;28;20094;-78
2021/01/24 03:35:28;;;;;;;25.13;13.38;;;3.50;99.90;;;;;;5062747;28;20233;-77
2021/01/24 03:37:53;;;;;;;25.27;11.80;;;3.50;99.90;;;;;;5064486;28;20035;-77
2021/01/24 03:40:18;;;;;;;22.63;12.20;;;3.60;99.90;;;;;;5057961;28;20071;-77
2021/01/24 03:42:44;;;;;;;22.70;12.23;;;3.60;99.90;;;;;;5059161;28;20073;-77
2021/01/24 03:45:10;;;;;;;22.92;12.32;;;3.60;99.90;;;;;;5055162;28;20580;-77
2021/01/24 03:47:36;;;;;;;24.15;11.48;;;3.60;99.90;;;;;;5063698;28;20037;-78
2021/01/24 03:50:02;;;;;;;22.08;11.88;;;3.60;99.90;;;;;;5065856;28;20158;-77
2021/01/24 03:52:28;;;;;;;26.42;12.73;;;3.50;99.90;;;;;;5052261;28;20040;-77
2021/01/24 03:54:53;;;;;;;20.70;10.93;;;3.40;99.90;;;;;;5057237;28;20033;-78
2021/01/24 03:57:19;;;;;;;23.05;12.25;;;3.40;99.90;;;;;;5054508;28;20103;-78
2021/01/24 03:59:49;;;;;;;20.38;11.00;;;3.40;99.90;;;;;;5062135;28;20079;-77
2021/01/24 04:02:15;;;;;;;22.20;11.77;;;3.40;99.90;;;;;;5053671;28;20029;-77
2021/01/24 04:04:41;;;;;;;22.48;11.35;;;3.40;99.90;;;;;;5055311;28;20145;-77
2021/01/24 04:07:06;;;;;;;21.63;12.23;;;3.30;99.90;;;;;;5067607;28;20485;-78
2021/01/24 04:09:32;;;;;;;22.35;11.50;;;3.40;99.90;;;;;;5055439;28;20020;-78
2021/01/24 04:11:57;;;;;;;21.63;11.48;;;3.50;99.90;;;;;;5055571;28;20033;-78
2021/01/24 04:14:22;;;;;;;24.60;11.70;;;3.50;99.90;;;;;;5050479;28;20087;-78
2021/01/24 04:16:48;;;;;;;21.15;11.30;;;3.50;99.90;;;;;;5056347;28;20036;-77
2021/01/24 04:19:13;;;;;;;20.70;10.25;;;3.40;99.90;;;;;;5060242;28;20016;-78
2021/01/24 04:21:39;;;;;;;23.50;10.90;;;3.40;99.90;;;;;;5069393;28;20550;-77
2021/01/24 04:24:05;;;;;;;20.58;10.85;;;3.40;99.90;;;;;;5055999;28;20056;-78
2021/01/24 04:26:31;;;;;;;20.30;10.65;;;3.30;99.90;;;;;;5048609;28;20028;-78
2021/01/24 04:28:56;;;;;;;19.00;10.77;;;3.40;99.90;;;;;;5056179;28;20039;-78
2021/01/24 04:31:23;;;;;;;21.33;10.88;;;3.40;99.90;;;;;;5049513;28;20021;-78
2021/01/24 04:33:48;;;;;;;20.02;10.63;;;3.40;99.90;;;;;;5054933;28;20020;-78
2021/01/24 04:36:13;;;;;;;21.15;10.00;;;3.40;99.90;;;;;;5058009;28;20740;-78
2021/01/24 04:38:39;;;;;;;20.27;9.57;;;3.50;99.90;;;;;;5048471;28;20025;-77
2021/01/24 04:41:05;;;;;;;19.27;10.18;;;3.50;99.90;;;;;;5061086;28;20028;-77
2021/01/24 04:43:32;;;;;;;18.48;9.93;;;3.50;99.90;;;;;;5053039;28;20029;-78
2021/01/24 04:45:58;;;;;;;21.77;9.70;;;3.60;99.90;;;;;;5053040;28;20052;-78
2021/01/24 04:48:23;;;;;;;17.75;8.65;;;3.50;99.90;;;;;;5058208;28;20029;-78
2021/01/24 04:50:49;;;;;;;21.35;9.85;;;3.60;99.90;;;;;;5062197;28;20025;-78
2021/01/24 04:53:14;;;;;;;17.73;8.38;;;3.60;99.90;;;;;;5060105;28;20071;-77
2021/01/24 04:55:40;;;;;;;15.65;8.38;;;3.70;99.90;;;;;;5047376;28;20438;-78
2021/01/24 04:58:07;;;;;;;15.02;7.22;;;3.70;99.90;;;;;;5044384;28;20036;-77
2021/01/24 05:00:32;;;;;;;15.23;6.43;;;3.80;99.90;;;;;;5058420;28;20016;-77
2021/01/24 05:02:58;;;;;;;14.70;7.55;;;3.70;99.90;;;;;;5061228;28;20020;-78
2021/01/24 05:05:23;;;;;;;15.95;7.57;;;3.90;99.90;;;;;;5049172;28;21412;-77
2021/01/24 05:08:00;;;;;;;14.35;7.38;;;3.90;99.90;;;;;;5056237;28;20025;-77
2021/01/24 05:10:27;;;;;;;14.40;7.22;;;4.00;99.90;;;;;;5063706;28;20089;-78
2021/01/24 05:12:54;;;;;;;13.13;6.90;;;3.90;99.90;;;;;;5066305;28;20040;-77
2021/01/24 05:15:20;;;;;;;15.02;7.55;;;3.80;99.90;;;;;;5061184;28;20033;-77
2021/01/24 05:17:49;;;;;;;14.85;7.45;;;3.80;99.90;;;;;;5057818;28;20017;-77
2021/01/24 05:20:16;;;;;;;11.88;6.50;;;3.90;99.90;;;;;;5059517;28;20017;-78
2021/01/24 05:22:41;;;;;;;12.90;7.05;;;3.90;99.90;;;;;;5065573;28;20052;-77
2021/01/24 05:25:08;;;;;;;14.70;7.53;;;3.90;99.90;;;;;;5055539;28;20021;-78
2021/01/24 05:27:33;;;;;;;12.88;6.82;;;4.00;99.90;;;;;;5060767;28;20040;-78
2021/01/24 05:29:59;;;;;;;13.25;6.55;;;3.90;99.90;;;;;;5053391;28;20032;-77
2021/01/24 05:32:24;;;;;;;13.43;6.47;;;3.90;99.90;;;;;;5068536;28;20039;-77
2021/01/24 05:34:51;;;;;;;12.43;6.57;;;3.80;99.90;;;;;;5067324;28;20033;-77
2021/01/24 05:37:17;;;;;;;14.75;6.95;;;3.80;99.90;;;;;;5054408;28;20033;-77
2021/01/24 05:39:43;;;;;;;12.18;6.88;;;3.80;99.90;;;;;;5059063;28;20039;-77
2021/01/24 05:42:20;;;;;;;14.32;6.93;;;3.90;99.90;;;;;;5059373;28;20029;-78
2021/01/24 05:44:47;;;;;;;14.25;7.00;;;3.80;99.90;;;;;;5064400;28;20522;-77
2021/01/24 05:47:13;;;;;;;15.32;7.60;;;3.90;99.90;;;;;;5053431;28;20644;-78
2021/01/24 05:49:44;;;;;;;11.85;6.70;;;3.80;99.90;;;;;;5056062;28;20479;-77
2021/01/24 05:52:11;;;;;;;14.38;7.15;;;3.80;99.90;;;;;;5058890;28;20027;-78
2021/01/24 05:54:37;;;;;;;13.25;6.65;;;3.80;99.90;;;;;;5065741;28;20036;-77
2021/01/24 05:57:03;;;;;;;12.43;6.93;;;3.80;99.90;;;;;;5059087;28;20507;-77
2021/01/24 05:59:28;;;;;;;14.07;6.82;;;3.80;99.90;;;;;;5057522;28;20028;-77
2021/01/24 06:01:54;;;;;;;10.50;6.40;;;3.90;99.90;;;;;;5058680;28;20047;-77
2021/01/24 06:04:19;;;;;;;11.75;6.50;;;3.80;99.90;;;;;;5059690;28;20544;-77
2021/01/24 06:06:45;;;;;;;12.90;6.82;;;3.80;99.90;;;;;;5062578;28;20050;-77
2021/01/24 06:09:10;;;;;;;11.85;5.88;;;3.80;99.90;;;;;;5061335;28;20108;-77
2021/01/24 06:11:37;;;;;;;14.05;6.32;;;3.70;99.90;;;;;;5051959;28;20037;-78
2021/01/24 06:14:08;;;;;;;12.82;5.95;;;3.80;99.90;;;;;;5053199;28;20024;-77
2021/01/24 06:16:38;;;;;;;12.75;6.32;;;3.80;99.90;;;;;;5060869;28;20021;-78
2021/01/24 06:19:06;;;;;;;10.85;6.10;;;3.80;99.90;;;;;;5057460;28;20048;-77
2021/01/24 06:21:42;;;;;;;12.80;5.50;;;3.90;99.90;;;;;;5068334;28;20044;-78
2021/01/24 06:24:26;;;;;;;11.90;5.47;;;3.80;99.90;;;;;;5054385;28;20029;-78
2021/01/24 06:26:57;;;;;;;11.70;5.90;;;3.80;99.90;;;;;;5054402;28;20104;-77
2021/01/24 06:29:25;;;;;;;10.23;5.75;;;3.90;99.90;;;;;;5061827;28;20028;-78
2021/01/24 06:31:52;;;;;;;11.75;5.68;;;3.80;99.90;;;;;;5057138;28;20025;-78
2021/01/24 06:34:33;;;;;;;14.27;5.85;;;3.80;99.90;;;;;;5053969;28;20021;-77
2021/01/24 06:37:07;;;;;;;12.40;6.00;;;3.80;99.90;;;;;;5058667;28;20530;-77
2021/01/24 06:39:43;;;;;;;8.50;5.00;;;3.80;99.90;;;;;;5057805;28;20479;-78
2021/01/24 06:42:09;;;;;;;10.85;5.80;;;3.80;99.90;;;;;;5066799;28;20024;-78
2021/01/24 06:44:41;;;;;;;10.20;5.55;;;3.80;99.90;;;;;;5057308;28;20522;-78
2021/01/24 06:47:28;;;;;;;12.85;6.15;;;3.80;99.90;;;;;;5053832;28;20044;-78
2021/01/24 06:49:53;;;;;;;11.70;5.68;;;3.80;99.90;;;;;;5059093;28;20105;-78
2021/01/24 06:52:21;;;;;;;9.48;5.30;;;3.80;99.90;;;;;;5062996;28;20479;-78
2021/01/24 06:54:48;;;;;;;13.10;6.00;;;3.80;99.90;;;;;;5061588;28;20041;-78
2021/01/24 06:57:14;;;;;;;10.68;5.03;;;3.80;99.90;;;;;;5051342;28;20021;-77
2021/01/24 06:59:40;;;;;;;9.02;5.70;;;3.80;99.90;;;;;;5054491;28;20028;-78
2021/01/24 07:02:24;;;;;;;10.73;5.60;;;3.90;99.90;;;;;;5059635;28;20093;-78
2021/01/24 07:05:09;;;;;;;11.88;5.72;;;3.90;99.90;;;;;;5063958;28;20033;-78
2021/01/24 07:07:36;;;;;;;10.93;5.85;;;3.90;99.90;;;;;;5063318;28;20029;-78
2021/01/24 07:10:04;;;;;;;11.60;6.28;;;3.80;99.90;;;;;;5062430;28;20028;-78
2021/01/24 07:12:34;;;;;;;12.70;5.38;;;3.80;99.90;;;;;;5066389;28;20064;-78
2021/01/24 07:15:00;;;;;;;8.75;5.10;;;3.80;99.90;;;;;;5052553;28;20029;-78
2021/01/24 07:17:26;;;;;;;10.60;5.05;;;3.80;99.90;;;;;;5063502;28;20567;-78
2021/01/24 07:19:53;;;;;;;10.57;5.60;;;3.80;99.90;;;;;;5050253;28;20036;-78
2021/01/24 07:22:21;;;;;;;13.82;5.53;;;3.80;99.90;;;;;;5059650;28;20032;-78
2021/01/24 07:24:48;;;;;;;11.63;5.57;;;3.90;99.90;;;;;;5061140;28;20041;-78
2021/01/24 07:27:16;;;;;;;12.07;6.20;;;3.90;99.90;;;;;;5057008;28;20029;-78
2021/01/24 07:29:42;;;;;;;10.95;5.38;;;3.90;99.90;;;;;;5052641;28;20021;-78
2021/01/24 07:32:10;;;;;;;10.77;5.32;;;3.90;99.90;;;;;;5057402;28;20482;-78
2021/01/24 07:34:36;;;;;;;11.13;5.80;;;4.00;99.90;;;;;;5052310;28;20037;-78
2021/01/24 07:37:04;;;;;;;13.13;5.00;;;4.00;99.90;;;;;;5060779;28;20029;-78
2021/01/24 07:39:31;;;;;;;14.45;5.10;;;4.00;99.90;;;;;;5058659;28;20028;-77
2021/01/24 07:41:57;;;;;;;10.38;5.28;;;4.10;99.90;;;;;;5051370;28;20027;-77
2021/01/24 07:44:23;;;;;;;11.27;5.30;;;4.10;99.90;;;;;;5057512;28;20028;-78
2021/01/24 07:46:48;;;;;;;14.15;6.20;;;4.10;99.90;;;;;;5061379;28;20051;-78
2021/01/24 07:49:14;;;;;;;13.13;6.03;;;4.10;99.90;;;;;;5059104;28;20496;-78
2021/01/24 07:51:41;;;;;;;14.18;5.95;;;4.10;99.90;;;;;;5052408;28;20041;-77
2021/01/24 07:54:07;;;;;;;11.48;5.13;;;4.20;99.90;;;;;;5055494;28;20036;-78
2021/01/24 07:56:33;;;;;;;11.00;5.40;;;4.20;99.90;;;;;;5050427;28;20107;-79
2021/01/24 07:58:58;;;;;;;9.88;4.70;;;4.20;99.90;;;;;;5049759;28;20186;-79
2021/01/24 08:01:24;;;;;;;9.80;5.15;;;4.20;99.90;;;;;;5052723;28;20220;-78
2021/01/24 08:03:50;;;;;;;12.20;6.38;;;4.20;99.90;;;;;;5060926;28;20107;-78
2021/01/24 08:06:16;;;;;;;16.38;6.43;;;4.20;99.90;;;;;;5065345;28;20078;-77
2021/01/24 08:08:43;;;;;;;13.60;6.80;;;4.30;99.90;;;;;;5057311;28;20119;-78
2021/01/24 08:11:09;;;;;;;11.52;6.10;;;4.30;99.90;;;;;;5048884;28;20511;-78
2021/01/24 08:13:36;;;;;;;9.90;5.63;;;4.30;99.90;;;;;;5052923;28;20064;-78
2021/01/24 08:16:07;;;;;;;12.18;5.40;;;4.20;99.90;;;;;;5060743;28;20036;-78
2021/01/24 08:18:34;;;;;;;10.25;5.22;;;4.20;99.90;;;;;;5060097;28;20162;-78
2021/01/24 08:21:05;;;;;;;10.88;4.93;;;4.20;99.90;;;;;;5061447;28;20028;-78
2021/01/24 08:23:31;;;;;;;;;;;4.30;99.90;;;;;;5063722;28;20025;-78
2021/01/24 08:26:00;;;;;;;10.68;4.97;;;4.30;99.90;;;;;;5052530;28;19913;-78
2021/01/24 08:28:26;;;;;;;12.02;5.20;;;4.30;99.90;;;;;;5066696;28;20029;-78
2021/01/24 08:30:52;;;;;;;12.05;4.82;;;4.30;99.90;;;;;;5072622;28;20039;-78
2021/01/24 08:33:20;;;;;;;10.00;4.78;;;4.30;99.90;;;;;;5050139;28;20374;-78
2021/01/24 08:35:46;;;;;;;13.68;5.05;;;4.30;99.90;;;;;;5054319;28;20059;-78
2021/01/24 08:38:13;;;;;;;11.52;4.78;;;4.40;99.90;;;;;;5054027;28;20503;-77
2021/01/24 08:40:39;;;;;;;7.80;4.70;;;4.30;99.90;;;;;;5072211;28;20386;-78
2021/01/24 08:43:06;;;;;;;10.02;4.80;;;4.30;99.90;;;;;;5061521;28;20056;-78
2021/01/24 08:45:32;;;;;;;11.10;5.68;;;4.40;99.90;;;;;;5057995;28;20095;-77
2021/01/24 08:48:00;;;;;;;12.73;5.38;;;4.40;99.90;;;;;;5058850;28;20032;-78
2021/01/24 08:50:34;;;;;;;11.63;5.15;;;4.40;99.90;;;;;;5049844;28;20036;-78
2021/01/24 08:53:05;;;;;;;10.50;4.97;;;4.40;99.90;;;;;;5052189;28;20029;-77
2021/01/24 08:55:30;;;;;;;12.68;5.28;;;4.40;99.90;;;;;;5064092;28;20032;-77
2021/01/24 08:57:56;;;;;;;10.02;5.00;;;4.40;99.90;;;;;;5049186;28;20578;-75
2021/01/24 09:00:23;;;;;;;9.05;4.53;;;4.50;99.90;;;;;;5053391;28;20133;-74
2021/01/24 09:02:49;;;;;;;13.85;5.43;;;4.40;99.90;;;;;;5060683;28;20103;-75
2021/01/24 09:05:32;;;;;;;11.40;5.70;;;4.40;99.90;;;;;;5055845;28;20131;-75
2021/01/24 09:07:57;;;;;;;11.27;5.50;;;4.50;99.90;;;;;;5060576;28;20032;-76
2021/01/24 09:10:27;;;;;;;12.15;6.18;;;4.50;99.90;;;;;;5056501;28;20025;-73
2021/01/24 09:12:56;;;;;;;11.65;5.93;;;4.50;99.90;;;;;;5053875;28;20033;-74
2021/01/24 09:15:23;;;;;;;8.70;5.18;;;4.60;99.90;;;;;;5059547;28;20115;-74
2021/01/24 09:17:50;;;;;;;9.98;5.07;;;4.60;99.90;;;;;;5059988;28;20639;-73
2021/01/24 09:20:17;;;;;;;10.23;5.47;;;4.50;99.90;;;;;;5054827;28;20104;-74
2021/01/24 09:22:42;;;;;;;9.38;4.45;;;4.50;99.90;;;;;;5066925;28;20491;-74
2021/01/24 09:25:08;;;;;;;9.73;4.60;;;4.50;99.90;;;;;;5061900;28;20145;-75
2021/01/24 09:27:34;;;;;;;10.05;5.00;;;4.50;99.90;;;;;;5060187;28;20024;-75
2021/01/24 09:30:00;;;;;;;9.32;4.70;;;4.60;99.90;;;;;;5052055;28;20033;-74
2021/01/24 09:32:25;;;;;;;8.45;4.93;;;4.60;99.90;;;;;;5052508;28;20059;-74
2021/01/24 09:34:51;;;;;;;9.70;4.50;;;4.60;99.90;;;;;;5055680;28;20443;-75
2021/01/24 09:37:17;;;;;;;12.88;5.05;;;4.60;99.90;;;;;;5061702;28;20025;-76
2021/01/24 09:39:42;;;;;;;9.60;4.65;;;4.60;99.90;;;;;;5055344;28;20035;-77
2021/01/24 09:42:08;;;;;;;9.07;5.03;;;4.60;99.90;;;;;;5068450;28;20043;-77
2021/01/24 09:44:33;;;;;;;8.07;4.72;;;4.60;99.90;;;;;;5056752;28;20423;-80
2021/01/24 09:46:59;;;;;;;11.25;5.60;;;4.60;99.90;;;;;;5058889;28;20402;-73
2021/01/24 09:49:25;;;;;;;10.48;5.28;;;4.60;99.90;;;;;;5065843;28;20035;-77
2021/01/24 09:51:50;;;;;;;10.93;5.57;;;4.60;99.90;;;;;;5058371;28;20033;-75
2021/01/24 09:54:17;;;;;;;11.05;5.60;;;4.50;99.90;;;;;;5054072;28;20078;-76
2021/01/24 09:56:43;;;;;;;9.70;5.18;;;4.60;99.90;;;;;;5056444;28;20029;-81
2021/01/24 09:59:09;;;;;;;12.85;4.97;;;4.70;99.90;;;;;;5058494;28;20385;-76
2021/01/24 10:01:35;;;;;;;11.30;6.07;;;4.60;99.90;;;;;;5057236;28;20021;-77
2021/01/24 10:04:00;;;;;;;10.63;5.80;;;4.60;99.90;;;;;;5069305;28;20028;-77
2021/01/24 10:06:25;;;;;;;11.65;5.65;;;4.70;99.90;;;;;;5057135;28;20025;-76
2021/01/24 10:08:51;;;;;;;11.50;5.70;;;4.70;99.90;;;;;;5060771;28;20025;-78
2021/01/24 10:11:17;;;;;;;10.60;5.57;;;4.80;99.90;;;;;;5051809;28;20028;-77
2021/01/24 10:13:42;;;;;;;11.30;5.93;;;4.80;99.90;;;;;;5054226;28;20531;-80
2021/01/24 10:16:08;;;;;;;14.13;5.93;;;4.80;99.90;;;;;;5050342;28;20387;-77
2021/01/24 10:18:33;;;;;;;12.75;5.60;;;4.80;99.90;;;;;;5054592;28;20029;-77
2021/01/24 10:20:59;;;;;;;12.30;5.63;;;4.80;99.90;;;;;;5062872;28;20479;-76
2021/01/24 10:23:25;;;;;;;9.13;5.22;;;4.90;99.90;;;;;;5052450;28;20106;-76
2021/01/24 10:25:53;;;;;;;11.70;5.63;;;5.00;99.90;;;;;;5050868;28;20502;-77
2021/01/24 10:28:19;;;;;;;14.38;5.75;;;5.00;99.90;;;;;;5051756;28;20032;-77
2021/01/24 10:30:48;;;;;;;9.68;5.20;;;4.90;99.90;;;;;;5053188;28;20033;-77
2021/01/24 10:33:14;;;;;;;12.20;5.82;;;4.90;99.90;;;;;;5051964;28;20391;-78
2021/01/24 10:35:40;;;;;;;11.98;5.85;;;4.90;99.90;;;;;;5050829;28;20037;-76
2021/01/24 10:38:06;;;;;;;11.60;5.43;;;4.90;99.90;;;;;;5049690;28;20055;-76
2021/01/24 10:40:32;;;;;;;13.38;5.97;;;4.90;99.90;;;;;;5061448;28;20479;-75
2021/01/24 10:42:57;;;;;;;11.00;5.88;;;4.80;99.90;;;;;;5066126;28;20040;-75
2021/01/24 10:45:24;;;;;;;15.27;6.47;;;4.80;99.90;;;;;;5055339;28;20566;-76
2021/01/24 10:47:50;;;;;;;16.73;6.22;;;4.90;99.90;;;;;;5060140;28;20063;-75
2021/01/24 10:50:16;;;;;;;10.57;5.60;;;4.90;99.90;;;;;;5066503;28;20513;-76
2021/01/24 10:52:41;;;;;;;11.63;5.70;;;5.00;99.90;;;;;;5057699;28;20032;-82
2021/01/24 10:55:08;;;;;;;10.30;5.70;;;5.10;99.90;;;;;;5050694;28;20111;-81
2021/01/24 10:57:33;;;;;;;10.27;5.25;;;5.20;99.90;;;;;;5062260;28;20021;-79
2021/01/24 10:59:59;;;;;;;9.98;5.57;;;5.10;99.90;;;;;;5058814;28;20111;-76
2021/01/24 11:02:24;;;;;;;9.48;5.57;;;5.10;99.90;;;;;;5054815;28;20479;-77
2021/01/24 11:04:50;;;;;;;13.18;5.90;;;5.00;99.90;;;;;;5058791;28;20033;-79
2021/01/24 11:07:15;;;;;;;11.55;6.32;;;5.00;99.90;;;;;;5061015;28;20514;-78
2021/01/24 11:09:40;;;;;;;11.30;6.47;;;5.10;99.90;;;;;;5052579;28;20387;-81
2021/01/24 11:12:06;;;;;;;10.85;6.38;;;5.10;99.90;;;;;;5060132;28;20024;-81
2021/01/24 11:14:32;;;;;;;10.82;5.88;;;5.10;99.90;;;;;;5061686;28;20031;-78
2021/01/24 11:16:57;;;;;;;9.25;5.82;;;5.10;99.90;;;;;;5055610;28;20021;-77
2021/01/24 11:19:23;;;;;;;11.27;5.88;;;5.00;99.90;;;;;;5058384;28;20081;-75
2021/01/24 11:21:48;;;;;;;13.30;6.95;;;4.90;99.90;;;;;;5058592;28;20533;-76
2021/01/24 11:24:14;;;;;;;11.82;6.30;;;4.90;99.90;;;;;;5055272;28;20044;-77
2021/01/24 11:26:39;;;;;;;13.68;6.55;;;4.90;99.90;;;;;;5054659;28;20518;-78
2021/01/24 11:29:05;;;;;;;12.20;6.75;;;5.00;99.90;;;;;;5064033;28;20174;-78
2021/01/24 11:31:32;;;;;;;10.82;6.50;;;5.10;99.90;;;;;;5062440;28;20048;-77
2021/01/24 11:33:58;;;;;;;13.35;6.80;;;4.90;99.90;;;;;;5050419;28;20118;-77
2021/01/24 11:36:23;;;;;;;15.02;7.20;;;5.10;99.90;;;;;;5060809;28;20494;-78
2021/01/24 11:38:49;;;;;;;12.77;6.47;;;5.00;99.90;;;;;;5054418;28;20051;-79
2021/01/24 11:41:14;;;;;;;12.52;7.13;;;5.00;99.90;;;;;;5052825;28;20552;-77
2021/01/24 11:43:40;;;;;;;12.45;6.88;;;5.00;99.90;;;;;;5051784;28;20060;-78
2021/01/24 11:46:05;;;;;;;12.27;7.10;;;5.00;99.90;;;;;;5054865;28;20052;-84
2021/01/24 11:48:31;;;;;;;12.95;7.28;;;5.00;99.90;;;;;;5058186;28;20031;-79
2021/01/24 11:50:56;;;;;;;12.90;7.00;;;4.90;99.90;;;;;;5058939;28;20468;-79
2021/01/24 11:53:22;;;;;;;11.60;6.78;;;5.00;99.90;;;;;;5050059;28;20037;-79
2021/01/24 11:55:48;;;;;;;12.73;6.40;;;5.10;99.90;;;;;;5051579;28;20114;-76
2021/01/24 11:58:15;;;;;;;13.50;7.10;;;5.20;99.90;;;;;;5059643;28;20036;-84
2021/01/24 12:00:41;;;;;;;12.10;7.28;;;5.10;99.90;;;;;;5068817;28;20025;-81
2021/01/24 12:03:07;;;;;;;11.07;6.28;;;5.10;99.90;;;;;;5053835;28;20120;-88
2021/01/24 12:05:33;;;;;;;12.00;6.70;;;5.00;99.90;;;;;;5047914;28;20167;-80
2021/01/24 12:07:58;;;;;;;10.38;6.45;;;4.80;99.90;;;;;;5049195;28;20388;-78
2021/01/24 12:10:24;;;;;;;11.27;6.43;;;4.90;99.90;;;;;;5048969;28;20033;-79
2021/01/24 12:12:52;;;;;;;11.98;6.57;;;4.80;99.90;;;;;;5061120;28;20027;-83
2021/01/24 12:15:18;;;;;;;11.88;7.05;;;4.80;99.90;;;;;;5051613;28;20029;-77
2021/01/24 12:17:43;;;;;;;11.95;6.63;;;4.80;99.90;;;;;;5057361;28;20021;-79
2021/01/24 12:20:10;;;;;;;14.55;7.22;;;4.80;99.90;;;;;;5053972;28;20569;-81
2021/01/24 12:22:35;;;;;;;14.63;7.38;;;4.70;99.90;;;;;;5062191;28;20036;-77
2021/01/24 12:25:01;;;;;;;13.48;6.75;;;4.50;99.90;;;;;;5048080;28;20025;-81
2021/01/24 12:27:26;;;;;;;13.80;6.97;;;4.50;99.90;;;;;;5057429;28;20032;-84
2021/01/24 12:29:52;;;;;;;13.93;7.57;;;4.60;99.90;;;;;;5056824;28;20078;-83
2021/01/24 12:32:17;;;;;;;13.32;7.15;;;4.60;99.90;;;;;;5050101;28;20021;-81
2021/01/24 12:34:43;;;;;;;14.95;6.82;;;4.70;99.90;;;;;;5062987;28;20115;-74
2021/01/24 12:37:08;;;;;;;11.85;6.78;;;4.70;99.90;;;;;;5052756;28;20025;-82
2021/01/24 12:39:33;;;;;;;15.18;7.22;;;4.70;99.90;;;;;;5059056;28;20071;-81
2021/01/24 12:41:59;;;;;;;12.10;7.20;;;4.60;99.90;;;;;;5056094;28;20044;-79
2021/01/24 12:44:25;;;;;;;15.35;6.95;;;4.70;99.90;;;;;;5048880;28;20025;-80